createdAt,value
2022-11-10T00:01:38.114Z,13.77
2022-11-10T00:04:42.421Z,13.40
2022-11-10T00:07:45.164Z,11.17
2022-11-10T00:11:01.984Z,13.17
2022-11-10T00:14:22.733Z,12.93
2022-11-10T00:17:25.982Z,16.33
2022-11-10T00:20:30.042Z,16.03
2022-11-10T00:23:32.717Z,12.80
2022-11-10T00:26:35.786Z,16.40
2022-11-10T00:29:38.491Z,16.17
2022-11-10T00:32:41.456Z,16.43
2022-11-10T00:35:45.505Z,17.67
2022-11-10T00:38:51.577Z,16.97
2022-11-10T00:41:54.578Z,15.97
2022-11-10T00:44:57.276Z,11.73
2022-11-10T00:48:00.333Z,14.13
2022-11-10T00:51:04.861Z,13.80
2022-11-10T00:54:07.961Z,12.93
2022-11-10T00:57:10.681Z,10.50
2022-11-10T01:00:13.917Z,11.47
2022-11-10T01:03:18.985Z,11.20
2022-11-10T01:06:23.896Z,11.90
2022-11-10T01:09:27.005Z,12.67
2022-11-10T01:12:30.903Z,12.27
2022-11-10T01:15:33.708Z,10.47
2022-11-10T01:18:37.334Z,11.37
2022-11-10T01:21:41.675Z,15.47
2022-11-10T01:24:44.782Z,11.60
2022-11-10T01:27:47.557Z,11.57
2022-11-10T01:30:50.599Z,16.07
2022-11-10T01:33:53.293Z,8.43
2022-11-10T01:36:57.664Z,7.30
2022-11-10T01:40:00.989Z,10.70
2022-11-10T01:43:03.788Z,5.73
2022-11-10T01:46:08.075Z,9.77
2022-11-10T01:49:12.337Z,8.77
2022-11-10T01:52:16.457Z,8.17
2022-11-10T01:55:19.993Z,11.70
2022-11-10T01:58:26.518Z,11.40
2022-11-10T02:01:29.645Z,9.50
2022-11-10T02:04:32.494Z,10.87
2022-11-10T02:07:37.013Z,15.87
2022-11-10T02:10:39.692Z,7.30
2022-11-10T02:13:43.007Z,8.43
2022-11-10T02:16:45.709Z,14.43
2022-11-10T02:19:48.693Z,10.57
2022-11-10T02:22:53.068Z,9.60
2022-11-10T02:25:56.055Z,7.47
2022-11-10T02:28:58.731Z,7.70
2022-11-10T02:32:02.096Z,13.70
2022-11-10T02:35:05.320Z,15.47
2022-11-10T02:38:09.958Z,10.30
2022-11-10T02:41:12.660Z,10.17
2022-11-10T02:44:15.361Z,10.80
2022-11-10T02:47:18.545Z,18.57
2022-11-10T02:50:21.259Z,11.30
2022-11-10T02:53:25.437Z,9.03
2022-11-10T02:56:28.235Z,11.90
2022-11-10T02:59:31.363Z,7.10
2022-11-10T03:02:34.146Z,8.77
2022-11-10T03:05:37.524Z,10.47
2022-11-10T03:08:42.080Z,10.10
2022-11-10T03:11:44.731Z,13.17
2022-11-10T03:14:47.920Z,18.50
2022-11-10T03:17:50.825Z,12.37
2022-11-10T03:20:53.643Z,12.20
2022-11-10T03:23:57.718Z,11.73
2022-11-10T03:27:00.842Z,13.10
2022-11-10T03:30:03.574Z,11.63
2022-11-10T03:33:07.209Z,13.23
2022-11-10T03:36:10.115Z,10.73
2022-11-10T03:39:14.622Z,14.03
2022-11-10T03:42:17.319Z,17.23
2022-11-10T03:45:20.057Z,11.75
2022-11-10T03:48:22.772Z,16.77
2022-11-10T03:51:26.040Z,14.70
2022-11-10T03:54:30.567Z,12.20
2022-11-10T03:57:33.255Z,13.87
2022-11-10T04:00:36.439Z,10.60
2022-11-10T04:03:39.239Z,10.97
2022-11-10T04:07:00.003Z,9.93
2022-11-10T04:10:05.236Z,9.23
2022-11-10T04:13:26.076Z,10.87
2022-11-10T04:16:28.765Z,10.20
2022-11-10T04:19:32.644Z,14.10
2022-11-10T04:22:52.780Z,12.43
2022-11-10T04:26:20.138Z,13.13
2022-11-10T04:29:23.407Z,12.13
2022-11-10T04:32:26.563Z,10.93
2022-11-10T04:35:29.319Z,13.40
2022-11-10T04:38:32.661Z,11.70
2022-11-10T04:41:37.671Z,13.10
2022-11-10T04:44:40.403Z,13.70
2022-11-10T04:47:43.629Z,13.10
2022-11-10T04:50:46.905Z,12.57
2022-11-10T04:53:49.735Z,17.47
2022-11-10T04:56:54.273Z,11.80
2022-11-10T04:59:57.411Z,10.90
2022-11-10T05:03:00.960Z,19.33
2022-11-10T05:06:04.282Z,10.90
2022-11-10T05:09:06.966Z,13.87
2022-11-10T05:12:11.489Z,9.23
2022-11-10T05:15:14.343Z,8.87
2022-11-10T05:18:17.514Z,16.57
2022-11-10T05:21:20.605Z,12.27
2022-11-10T05:24:23.963Z,11.07
2022-11-10T05:27:28.083Z,17.17
2022-11-10T05:30:30.812Z,11.27
2022-11-10T05:33:34.150Z,13.03
2022-11-10T05:36:36.840Z,13.80
2022-11-10T05:39:39.909Z,11.33
2022-11-10T05:42:48.333Z,17.67
2022-11-10T05:45:51.568Z,14.30
2022-11-10T05:48:54.267Z,45.80
2022-11-10T05:51:57.439Z,40.13
2022-11-10T05:55:00.146Z,35.80
2022-11-10T05:58:04.930Z,56.90
2022-11-10T06:01:07.665Z,45.33
2022-11-10T06:04:10.909Z,49.87
2022-11-10T06:07:14.135Z,58.73
2022-11-10T06:10:17.401Z,47.83
2022-11-10T06:13:22.185Z,39.13
2022-11-10T06:16:25.146Z,44.27
2022-11-10T06:19:28.285Z,33.93
2022-11-10T06:22:31.140Z,31.63
2022-11-10T06:25:36.052Z,46.37
2022-11-10T06:28:40.111Z,47.13
2022-11-10T06:31:43.422Z,48.33
2022-11-10T06:34:46.158Z,28.27
2022-11-10T06:37:58.097Z,38.63
2022-11-10T06:41:00.849Z,23.90
2022-11-10T06:44:05.335Z,52.40
2022-11-10T06:47:08.076Z,75.83
2022-11-10T06:50:11.099Z,51.63
2022-11-10T06:53:14.200Z,97.47
2022-11-10T06:56:17.520Z,73.30
2022-11-10T06:59:21.576Z,57.37
2022-11-10T07:02:24.338Z,107.70
2022-11-10T07:05:27.032Z,107.23
2022-11-10T07:08:30.525Z,112.93
2022-11-10T07:11:33.205Z,122.40
2022-11-10T07:14:37.604Z,62.20
2022-11-10T07:17:41.761Z,69.83
2022-11-10T07:20:46.504Z,84.17
2022-11-10T07:23:49.190Z,56.27
2022-11-10T07:26:52.418Z,71.40
2022-11-10T07:29:56.466Z,44.50
2022-11-10T07:33:01.824Z,42.60
2022-11-10T07:36:05.638Z,47.17
2022-11-10T07:39:08.393Z,32.77
2022-11-10T07:42:11.114Z,42.53
2022-11-10T07:45:15.276Z,31.13
2022-11-10T07:48:18.379Z,35.83
2022-11-10T07:51:21.139Z,26.33
2022-11-10T07:54:24.346Z,31.07
2022-11-10T07:57:27.063Z,32.53
2022-11-10T08:00:32.269Z,22.43
2022-11-10T08:03:35.009Z,22.07
2022-11-10T08:06:38.429Z,26.27
2022-11-10T08:09:41.237Z,22.23
2022-11-10T08:12:43.912Z,28.67
2022-11-10T08:15:48.013Z,22.80
2022-11-10T08:18:51.246Z,22.00
2022-11-10T08:21:53.944Z,30.70
2022-11-10T08:24:57.044Z,30.67
2022-11-10T08:28:01.828Z,21.20
2022-11-10T08:31:06.582Z,26.63
2022-11-10T08:34:09.581Z,22.63
2022-11-10T08:37:12.320Z,26.33
2022-11-10T08:40:15.876Z,12.93
2022-11-10T08:43:19.407Z,21.73
2022-11-10T08:46:24.064Z,22.00
2022-11-10T08:49:26.727Z,20.80
2022-11-10T08:52:29.987Z,25.17
2022-11-10T08:55:32.769Z,22.80
2022-11-10T08:58:47.247Z,29.30
2022-11-10T09:01:54.397Z,28.53
2022-11-10T09:04:57.622Z,21.87
2022-11-10T09:08:00.377Z,17.30
2022-11-10T09:11:04.568Z,20.03
2022-11-10T09:14:07.687Z,13.67
2022-11-10T09:17:11.817Z,14.67
2022-11-10T09:20:14.632Z,10.47
2022-11-10T09:23:20.217Z,15.87
2022-11-10T09:26:23.648Z,17.63
2022-11-10T09:29:26.366Z,14.23
2022-11-10T09:32:32.526Z,19.87
2022-11-10T09:35:36.009Z,12.13
2022-11-10T09:38:39.477Z,9.97
2022-11-10T09:41:43.997Z,10.17
2022-11-10T09:44:53.271Z,10.80
2022-11-10T09:48:03.200Z,7.37
2022-11-10T09:51:09.433Z,9.77
2022-11-10T09:54:28.465Z,6.97
2022-11-10T09:57:31.584Z,10.63
2022-11-10T10:00:36.847Z,7.63
2022-11-10T10:03:47.689Z,7.07
2022-11-10T10:07:10.660Z,10.07
2022-11-10T10:10:21.147Z,10.27
2022-11-10T10:13:33.440Z,6.50
2022-11-10T10:16:45.456Z,8.57
2022-11-10T10:19:55.940Z,10.77
2022-11-10T10:23:08.284Z,12.03
2022-11-10T10:26:17.024Z,10.00
2022-11-10T10:29:24.162Z,11.30
2022-11-10T10:32:27.660Z,9.87
2022-11-10T10:35:32.184Z,8.37
2022-11-10T10:38:39.221Z,10.40
2022-11-10T10:41:44.925Z,10.57
2022-11-10T10:45:17.661Z,13.27
2022-11-10T10:48:28.703Z,11.13
2022-11-10T10:51:32.966Z,7.97
2022-11-10T10:54:38.270Z,9.57
2022-11-10T10:57:51.636Z,13.33
2022-11-10T11:00:57.635Z,8.47
2022-11-10T11:04:02.075Z,10.73
2022-11-10T11:07:20.038Z,13.47
2022-11-10T11:10:24.742Z,4.80
2022-11-10T11:13:30.273Z,6.30
2022-11-10T11:16:47.229Z,7.40
2022-11-10T11:19:58.506Z,9.87
2022-11-10T11:23:13.077Z,7.63
2022-11-10T11:26:20.838Z,9.50
2022-11-10T11:29:47.008Z,9.57
2022-11-10T11:33:13.471Z,7.23
2022-11-10T11:36:26.022Z,6.87
2022-11-10T11:39:39.751Z,8.07
2022-11-10T11:42:55.396Z,6.43
2022-11-10T11:46:07.243Z,10.27
2022-11-10T11:49:42.166Z,7.93
2022-11-10T11:52:56.427Z,8.60
2022-11-10T11:56:12.378Z,5.13
2022-11-10T11:59:33.476Z,6.93
2022-11-10T12:02:53.507Z,10.07
2022-11-10T12:06:15.835Z,10.27
2022-11-10T12:09:27.284Z,10.57
2022-11-10T12:13:05.934Z,7.23
2022-11-10T12:16:18.986Z,8.77
2022-11-10T12:19:34.791Z,5.00
2022-11-10T12:22:44.978Z,7.53
2022-11-10T12:25:57.040Z,5.60
2022-11-10T12:29:06.086Z,5.77
2022-11-10T12:32:17.263Z,5.63
2022-11-10T12:35:23.894Z,10.03
2022-11-10T12:38:36.721Z,7.33
2022-11-10T12:41:46.843Z,6.53
2022-11-10T12:45:00.499Z,4.90
2022-11-10T12:48:06.454Z,7.47
2022-11-10T12:51:16.574Z,6.63
2022-11-10T12:54:22.405Z,4.00
2022-11-10T12:57:27.557Z,4.93
2022-11-10T13:00:33.515Z,5.77
2022-11-10T13:03:39.423Z,8.67
2022-11-10T13:06:49.503Z,6.80
2022-11-10T13:09:52.415Z,7.33
2022-11-10T13:13:00.514Z,5.83
2022-11-10T13:16:03.803Z,4.20
2022-11-10T13:19:09.548Z,5.20
2022-11-10T13:22:28.982Z,7.33
2022-11-10T13:26:03.154Z,3.47
2022-11-10T13:29:21.760Z,3.73
2022-11-10T13:32:28.383Z,14.97
2022-11-10T13:35:55.570Z,9.83
2022-11-10T13:38:58.760Z,5.43
2022-11-10T13:42:04.566Z,5.43
2022-11-10T13:45:30.269Z,10.30
2022-11-10T13:48:50.836Z,25.37
2022-11-10T13:52:06.317Z,3.30
2022-11-10T13:55:36.199Z,5.17
2022-11-10T13:58:44.952Z,7.87
2022-11-10T14:01:48.300Z,6.97
2022-11-10T14:04:51.225Z,7.17
2022-11-10T14:07:58.603Z,4.57
2022-11-10T14:11:05.714Z,7.90
2022-11-10T14:14:14.782Z,7.73
2022-11-10T14:17:22.510Z,8.00
2022-11-10T14:20:30.929Z,6.73
2022-11-10T14:23:46.673Z,5.80
2022-11-10T14:26:52.879Z,5.37
2022-11-10T14:30:08.813Z,6.10
2022-11-10T14:33:13.062Z,7.10
2022-11-10T14:36:15.861Z,7.73
2022-11-10T14:39:25.953Z,7.33
2022-11-10T14:42:31.458Z,5.57
2022-11-10T14:45:34.508Z,5.07
2022-11-10T14:48:39.668Z,8.10
2022-11-10T14:51:42.408Z,4.67
2022-11-10T14:54:47.671Z,6.77
2022-11-10T14:57:52.564Z,7.47
2022-11-10T15:00:55.880Z,7.57
2022-11-10T15:03:58.651Z,8.03
2022-11-10T15:07:01.939Z,10.37
2022-11-10T15:10:16.963Z,7.77
2022-11-10T15:13:33.591Z,7.93
2022-11-10T15:16:36.936Z,5.40
2022-11-10T15:24:12.213Z,13.40
2022-11-10T15:27:24.920Z,11.17
2022-11-10T15:30:27.731Z,9.50
2022-11-10T15:33:34.371Z,12.73
2022-11-10T15:36:39.740Z,9.87
2022-11-10T15:39:42.918Z,10.93
2022-11-10T15:43:10.743Z,6.87
2022-11-10T15:46:20.499Z,12.73
2022-11-10T15:49:26.352Z,15.17
2022-11-10T15:52:29.155Z,12.83
2022-11-10T15:55:34.428Z,10.90
2022-11-10T15:58:38.702Z,8.80
2022-11-10T16:01:41.479Z,11.70
2022-11-10T16:04:44.301Z,19.67
2022-11-10T16:07:47.121Z,14.87
2022-11-10T16:10:53.257Z,22.67
2022-11-10T16:13:58.184Z,34.93
2022-11-10T16:17:02.043Z,67.67
2022-11-10T16:20:05.381Z,41.77
2022-11-10T16:23:08.278Z,25.93
2022-11-10T16:26:14.714Z,12.30
2022-11-10T16:29:20.988Z,13.97
2022-11-10T16:32:23.802Z,15.67
2022-11-10T16:35:26.993Z,13.47
2022-11-10T16:38:31.369Z,16.13
2022-11-10T16:41:34.557Z,29.10
2022-11-10T16:44:42.268Z,14.73
2022-11-10T16:47:48.207Z,15.77
2022-11-10T16:50:53.454Z,13.60
2022-11-10T16:53:56.348Z,11.43
2022-11-10T16:56:59.023Z,15.83
2022-11-10T17:00:03.480Z,14.23
2022-11-10T17:03:12.156Z,12.50
2022-11-10T17:06:16.212Z,12.73
2022-11-10T17:09:22.460Z,25.77
2022-11-10T17:12:25.215Z,18.90
2022-11-10T17:15:29.291Z,10.80
2022-11-10T17:18:33.323Z,18.60
2022-11-10T17:21:37.344Z,12.93
2022-11-10T17:24:40.100Z,15.33
2022-11-10T17:27:43.049Z,15.23
2022-11-10T17:30:47.431Z,13.40
2022-11-10T17:33:50.112Z,11.37
2022-11-10T17:36:59.883Z,16.43
2022-11-10T17:40:17.791Z,9.43
2022-11-10T17:43:21.536Z,11.23
2022-11-10T17:46:25.954Z,13.80
2022-11-10T17:49:28.817Z,23.23
2022-11-10T17:52:31.605Z,13.20
2022-11-10T17:55:34.750Z,39.87
2022-11-10T17:58:37.819Z,23.87
2022-11-10T18:01:46.051Z,14.53
2022-11-10T18:04:50.531Z,32.53
2022-11-10T18:07:53.618Z,31.00
2022-11-10T18:10:56.436Z,30.47
2022-11-10T18:13:59.113Z,37.10
2022-11-10T18:17:03.300Z,31.13
2022-11-10T18:20:06.892Z,25.30
2022-11-10T18:23:12.298Z,30.47
2022-11-10T18:26:14.995Z,26.03
2022-11-10T18:29:17.711Z,24.40
2022-11-10T18:32:23.082Z,21.20
2022-11-10T18:35:25.936Z,26.50
2022-11-10T18:38:28.848Z,22.77
2022-11-10T18:41:57.699Z,24.30
2022-11-10T18:45:00.403Z,18.30
2022-11-10T18:48:05.900Z,25.13
2022-11-10T18:51:08.727Z,25.13
2022-11-10T18:54:11.752Z,40.87
2022-11-10T18:57:16.569Z,29.60
2022-11-10T19:00:19.848Z,24.93
2022-11-10T19:03:24.180Z,15.83
2022-11-10T19:06:27.101Z,24.07
2022-11-10T19:09:29.929Z,28.63
2022-11-10T19:12:33.394Z,30.73
2022-11-10T19:15:41.050Z,32.37
2022-11-10T19:18:45.500Z,27.07
2022-11-10T19:21:48.644Z,48.07
2022-11-10T19:25:07.515Z,38.57
2022-11-10T19:28:11.652Z,58.60
2022-11-10T19:31:16.424Z,39.00
2022-11-10T19:34:21.590Z,37.97
2022-11-10T19:37:32.017Z,40.60
2022-11-10T19:40:39.303Z,28.73
2022-11-10T19:43:47.662Z,31.70
2022-11-10T19:46:50.639Z,33.03
2022-11-10T19:49:54.645Z,28.57
2022-11-10T19:52:57.654Z,36.63
2022-11-10T19:56:05.286Z,37.00
2022-11-10T19:59:08.409Z,30.93
2022-11-10T20:02:13.477Z,26.77
2022-11-10T20:05:18.476Z,21.47
2022-11-10T20:08:21.604Z,25.90
2022-11-10T20:11:25.931Z,22.40
2022-11-10T20:14:29.162Z,21.07
2022-11-10T20:17:32.036Z,19.03
2022-11-10T20:20:38.716Z,13.43
2022-11-10T20:23:42.396Z,17.70
2022-11-10T20:26:45.519Z,13.70
2022-11-10T20:29:48.625Z,15.93
2022-11-10T20:32:52.027Z,13.40
2022-11-10T20:35:56.541Z,12.63
2022-11-10T20:39:00.925Z,18.90
2022-11-10T20:42:04.030Z,14.03
2022-11-10T20:45:08.260Z,14.53
2022-11-10T20:48:11.086Z,14.73
2022-11-10T20:51:17.307Z,15.27
2022-11-10T20:54:20.066Z,13.80
2022-11-10T20:57:22.787Z,15.03
2022-11-10T21:00:25.557Z,14.37
2022-11-10T21:03:28.286Z,14.23
2022-11-10T21:06:32.472Z,17.97
2022-11-10T21:09:35.206Z,16.47
2022-11-10T21:12:53.193Z,17.40
2022-11-10T21:15:58.506Z,21.43
2022-11-10T21:19:02.423Z,18.73
2022-11-10T21:22:06.498Z,19.17
2022-11-10T21:25:09.869Z,23.90
2022-11-10T21:28:12.701Z,22.30
2022-11-10T21:31:15.816Z,20.67
2022-11-10T21:34:18.518Z,23.83
2022-11-10T21:37:23.751Z,27.87
2022-11-10T21:40:26.475Z,24.50
2022-11-10T21:43:29.515Z,27.93
2022-11-10T21:46:32.437Z,29.00
2022-11-10T21:49:35.150Z,29.83
2022-11-10T21:52:39.346Z,24.03
2022-11-10T21:55:42.165Z,25.57
2022-11-10T21:58:45.000Z,26.70
2022-11-10T22:01:47.802Z,24.47
2022-11-10T22:04:50.639Z,22.43
2022-11-10T22:07:54.707Z,25.03
2022-11-10T22:11:14.713Z,25.37
2022-11-10T22:14:34.961Z,40.40
2022-11-10T22:17:55.192Z,40.57
2022-11-10T22:20:57.928Z,80.90
2022-11-10T22:24:19.359Z,89.33
2022-11-10T22:27:22.408Z,138.40
2022-11-10T22:30:25.467Z,109.87
2022-11-10T22:33:28.584Z,99.43
2022-11-10T22:36:31.625Z,69.90
2022-11-10T22:39:53.261Z,66.77
2022-11-10T22:43:13.385Z,73.37
2022-11-10T22:46:16.330Z,94.30
2022-11-10T22:49:21.467Z,53.00
2022-11-10T22:52:24.448Z,86.90
2022-11-10T22:55:28.499Z,43.27
2022-11-10T22:58:31.190Z,51.70
2022-11-10T23:01:34.746Z,56.00
2022-11-10T23:04:37.478Z,49.03
2022-11-10T23:07:40.172Z,51.07
2022-11-10T23:10:44.365Z,77.10
2022-11-10T23:13:47.702Z,49.37
2022-11-10T23:16:50.419Z,47.73
2022-11-10T23:19:53.240Z,44.33
2022-11-10T23:22:56.327Z,26.60
2022-11-10T23:26:02.960Z,64.63
2022-11-10T23:29:05.858Z,94.30
2022-11-10T23:32:08.739Z,43.30
2022-11-10T23:35:11.484Z,73.30
2022-11-10T23:38:14.215Z,44.43
2022-11-10T23:41:21.220Z,53.10
2022-11-10T23:44:24.077Z,38.97
2022-11-10T23:47:26.925Z,47.50
2022-11-10T23:50:29.649Z,38.43
2022-11-10T23:53:32.585Z,34.60
2022-11-10T23:56:36.675Z,17.03
2022-11-10T23:59:39.520Z,29.57
